Time;durP1;ratioP1;P1;durP2;ratioP2;P2;SDS_P1;SDS_P2;PMS_P1;PMS_P2;Temp;Humidity;BMP_temperature;BMP_pressure;BME280_temperature;BME280_humidity;BME280_pressure;Samples;Min_cycle;Max_cycle;Signal;HPM_P1;HPM_P2
2023/06/23 00:01:59;;;;;;;15.27;7.97;;;;;;;23.74;55.42;100615.11;124266;1099;104265;-80
2023/06/23 00:04:30;;;;;;;15.53;7.97;;;;;;;23.74;55.33;100615.11;124062;1099;104335;-81
2023/06/23 00:07:01;;;;;;;15.80;8.27;;;;;;;23.72;55.47;100617.81;124093;1099;104363;-80
2023/06/23 00:09:32;;;;;;;16.77;8.30;;;;;;;23.72;55.32;100622.27;124155;1099;104265;-81
2023/06/23 00:12:07;;;;;;;16.23;7.87;;;;;;;23.71;55.46;100613.36;124154;1099;104185;-80
2023/06/23 00:14:38;;;;;;;16.25;8.05;;;;;;;23.69;56.00;100617.87;123781;1099;104313;-80
2023/06/23 00:17:09;;;;;;;14.00;7.90;;;;;;;23.67;56.11;100615.21;124047;1099;104348;-80
2023/06/23 00:19:41;;;;;;;15.43;7.47;;;;;;;23.66;55.29;100618.79;124024;1099;104175;-81
2023/06/23 00:22:12;;;;;;;15.10;7.90;;;;;;;23.64;55.53;100615.27;124016;1099;104341;-81
2023/06/23 00:24:43;;;;;;;15.43;8.00;;;;;;;23.63;55.92;100608.12;123758;1101;104303;-81
2023/06/23 00:27:14;;;;;;;15.17;7.67;;;;;;;23.62;55.60;100610.83;123744;1099;104635;-82
2023/06/23 00:29:46;;;;;;;14.15;7.10;;;;;;;23.59;55.80;100605.52;124120;1099;104309;-81
2023/06/23 00:32:17;;;;;;;14.97;7.33;;;;;;;23.57;55.92;100601.99;124065;1099;104338;-79
2023/06/23 00:34:49;;;;;;;14.20;7.50;;;;;;;23.55;56.09;100603.83;123822;1099;104296;-81
2023/06/23 00:37:30;;;;;;;16.93;8.13;;;;;;;23.54;56.01;100602.92;124042;1099;104269;-82
2023/06/23 00:40:02;;;;;;;14.97;7.63;;;;;;;23.54;56.02;100599.36;123825;1099;102211;-81
2023/06/23 00:42:45;;;;;;;16.12;7.80;;;;;;;23.52;56.54;100604.75;124066;1099;104325;-80
2023/06/23 00:45:18;;;;;;;17.15;8.00;;;;;;;23.51;56.23;100603.88;123960;1099;104297;-81
2023/06/23 00:47:50;;;;;;;13.75;7.72;;;;;;;23.50;56.30;100601.22;124068;1099;104162;-79
2023/06/23 00:50:23;;;;;;;16.20;8.03;;;;;;;23.46;56.19;100603.04;124136;1099;104695;-79
2023/06/23 00:52:56;;;;;;;14.33;7.80;;;;;;;23.42;56.64;100611.14;124039;1099;104242;-80
2023/06/23 00:55:29;;;;;;;16.05;7.58;;;;;;;23.41;56.22;100606.72;124089;1099;104437;-79
2023/06/23 00:58:00;;;;;;;17.57;7.92;;;;;;;23.41;56.28;100607.59;123988;1099;104239;-81
2023/06/23 01:00:31;;;;;;;12.87;7.33;;;;;;;23.42;56.55;100603.11;124089;1099;104383;-81
2023/06/23 01:03:03;;;;;;;14.77;7.80;;;;;;;23.42;56.84;100603.11;123898;1099;104376;-79
2023/06/23 01:05:39;;;;;;;12.73;6.93;;;;;;;23.42;56.30;100592.41;123794;1098;104386;-81
2023/06/23 01:08:27;;;;;;;12.67;7.23;;;;;;;23.41;56.80;100598.69;124015;1099;104297;-82
2023/06/23 01:11:02;;;;;;;14.30;7.23;;;;;;;23.40;56.71;100591.55;123999;1099;104171;-80
2023/06/23 01:13:39;;;;;;;13.53;7.40;;;;;;;23.38;56.49;100590.70;124043;1098;104211;-80
2023/06/23 01:16:16;;;;;;;11.87;7.07;;;;;;;23.38;56.53;100590.70;124217;1099;104377;-81
2023/06/23 01:18:58;;;;;;;13.77;6.87;;;;;;;23.36;57.02;100588.05;124169;1099;104302;-81
2023/06/23 01:21:39;;;;;;;13.20;7.17;;;;;;;23.32;56.58;100588.99;124039;1098;104245;-82
2023/06/23 01:24:28;;;;;;;14.77;7.53;;;;;;;23.30;56.63;100591.69;124120;1099;104239;-81
2023/06/23 01:27:22;;;;;;;13.33;7.23;;;;;;;23.28;57.11;100596.20;124341;1099;104725;-80
2023/06/23 01:29:56;;;;;;;14.43;6.97;;;;;;;23.25;56.83;100592.66;123749;1099;104364;-79
2023/06/23 01:32:32;;;;;;;16.90;7.20;;;;;;;23.19;56.88;100585.63;123968;1099;104402;-82
2023/06/23 01:35:08;;;;;;;12.57;6.77;;;;;;;23.18;56.69;100593.68;124103;1099;104278;-81
2023/06/23 01:37:43;;;;;;;14.10;7.40;;;;;;;23.17;57.25;100592.80;123766;1099;104280;-81
2023/06/23 01:40:18;;;;;;;13.67;7.00;;;;;;;23.15;57.05;100589.25;123919;1099;104316;-79
2023/06/23 01:42:58;;;;;;;12.57;7.03;;;;;;;23.12;57.13;100592.87;124004;1099;117824;-80
2023/06/23 01:45:30;;;;;;;15.90;7.37;;;;;;;23.10;57.52;100591.12;124067;1099;104319;-81
2023/06/23 01:48:06;;;;;;;12.90;7.40;;;;;;;23.07;57.52;100599.16;123982;1099;104487;-79
2023/06/23 01:50:42;;;;;;;15.10;7.30;;;;;;;23.05;57.41;100593.83;124044;1099;104751;-82
2023/06/23 01:53:15;;;;;;;12.60;6.90;;;;;;;23.05;57.61;100598.30;124071;1098;104265;-79
2023/06/23 01:55:48;;;;;;;13.20;7.43;;;;;;;23.03;57.45;100603.67;124161;1099;104333;-80
2023/06/23 01:58:21;;;;;;;14.40;7.90;;;;;;;23.02;57.78;100599.22;124074;1098;104264;-79
2023/06/23 02:00:54;;;;;;;14.43;7.40;;;;;;;23.03;57.68;100590.30;124026;1098;104392;-79
2023/06/23 02:03:27;;;;;;;13.40;7.40;;;;;;;23.02;57.63;100590.31;124261;1099;104421;-80
2023/06/23 02:06:00;;;;;;;13.53;7.30;;;;;;;22.98;57.63;100597.48;124090;1099;104377;-80
2023/06/23 02:08:34;;;;;;;12.35;7.03;;;;;;;22.98;57.72;100603.73;123993;1099;104399;-81
2023/06/23 02:11:06;;;;;;;11.80;7.23;;;;;;;22.95;57.92;100602.87;124058;1099;104402;-82
2023/06/23 02:13:39;;;;;;;15.93;7.90;;;;;;;22.92;57.62;100603.83;124073;1098;104647;-80
2023/06/23 02:16:12;;;;;;;15.88;7.45;;;;;;;22.88;58.04;100596.73;123835;1099;104357;-78
2023/06/23 02:18:45;;;;;;;14.17;7.40;;;;;;;22.91;57.58;100607.39;124103;1099;104268;-80
2023/06/23 02:21:17;;;;;;;16.32;7.85;;;;;;;22.90;58.27;100605.61;123999;1099;104222;-82
2023/06/23 02:23:50;;;;;;;13.40;7.12;;;;;;;22.87;58.04;100604.78;124027;1099;104261;-80
2023/06/23 02:26:25;;;;;;;14.40;7.15;;;;;;;22.85;58.38;100602.13;124068;1099;104316;-79
2023/06/23 02:28:57;;;;;;;17.97;8.37;;;;;;;22.83;57.78;100598.59;123965;1099;104731;-81
2023/06/23 02:31:28;;;;;;;16.77;8.30;;;;;;;22.78;58.10;100604.00;124103;1099;104238;-80
2023/06/23 02:34:00;;;;;;;17.53;8.53;;;;;;;22.76;58.66;100603.11;123877;1099;104335;-80
2023/06/23 02:36:37;;;;;;;21.90;8.30;;;;;;;22.78;58.89;100597.75;124132;1099;104222;-79
2023/06/23 02:39:13;;;;;;;18.37;8.90;;;;;;;22.78;58.53;100598.66;124144;1099;104297;-79
2023/06/23 02:41:48;;;;;;;15.23;8.50;;;;;;;22.76;58.57;100597.77;123841;1099;104321;-80
2023/06/23 02:44:19;;;;;;;;;;;;;;;22.76;58.24;100595.09;124122;1099;104267;-80
2023/06/23 02:46:57;;;;;;;17.13;8.23;;;;;;;22.78;58.58;100595.98;124040;1098;104254;-79
2023/06/23 02:49:31;;;;;;;19.30;8.87;;;;;;;22.78;59.20;100597.75;124004;1099;104181;-80
2023/06/23 02:52:05;;;;;;;21.23;8.80;;;;;;;22.80;58.99;100594.16;123876;1102;104387;-79
2023/06/23 02:54:37;;;;;;;;;;;;;;;22.83;59.07;100592.34;124177;1098;104319;-78
2023/06/23 02:57:16;;;;;;;15.83;8.17;;;;;;;22.83;59.04;100578.96;123833;1099;104354;-83
2023/06/23 02:59:50;;;;;;;17.07;8.60;;;;;;;22.85;59.12;100580.72;124018;1099;104876;-79
2023/06/23 03:02:25;;;;;;;20.87;8.70;;;;;;;22.88;59.24;100585.16;123897;1099;104223;-79
2023/06/23 03:04:58;;;;;;;16.27;8.93;;;;;;;22.91;59.22;100575.28;123723;1099;104399;-79
2023/06/23 03:07:32;;;;;;;13.45;7.67;;;;;;;22.91;59.77;100572.61;123823;1099;104345;-81
2023/06/23 03:10:04;;;;;;;22.65;8.80;;;;;;;22.92;59.67;100571.72;123922;1099;104293;-79
2023/06/23 03:12:35;;;;;;;20.37;8.93;;;;;;;22.98;59.41;100573.40;123928;1099;104648;-80
2023/06/23 03:15:08;;;;;;;;;;;;;;;23.00;59.03;100570.70;124021;1099;104240;-79
2023/06/23 03:17:42;;;;;;;20.17;9.60;;;;;;;23.02;59.37;100567.11;124104;1099;104222;-79
2023/06/23 03:20:19;;;;;;;17.87;8.37;;;;;;;23.02;59.53;100574.27;123945;1099;104686;-80
2023/06/23 03:22:58;;;;;;;17.93;8.97;;;;;;;23.02;59.88;100572.45;123801;1099;104339;-79
2023/06/23 03:25:30;;;;;;;33.77;11.07;;;;;;;23.06;60.17;100575.97;123873;1099;104733;-79
2023/06/23 03:28:08;;;;;;;23.23;9.13;;;;;;;23.09;59.75;100576.86;123869;1099;104418;-79
2023/06/23 03:30:45;;;;;;;27.63;9.43;;;;;;;23.15;59.82;100575.86;124019;1099;104319;-79
2023/06/23 03:33:22;;;;;;;20.57;9.07;;;;;;;23.19;59.86;100574.92;123710;1099;104329;-81
2023/06/23 03:35:57;;;;;;;21.23;9.13;;;;;;;23.24;60.38;100578.41;124098;1099;104264;-81
2023/06/23 03:38:33;;;;;;;20.13;9.47;;;;;;;23.29;60.01;100581.88;123904;1099;104239;-81
2023/06/23 03:41:09;;;;;;;22.20;9.37;;;;;;;23.34;59.74;100573.78;123838;1099;104322;-81
2023/06/23 03:43:49;;;;;;;22.50;8.87;;;;;;;23.39;60.13;100579.06;124021;1099;104284;-80
2023/06/23 03:46:24;;;;;;;22.37;8.67;;;;;;;23.44;60.10;100582.58;124040;1099;104297;-78
2023/06/23 03:48:59;;;;;;;23.97;8.90;;;;;;;23.49;60.35;100583.38;124082;1099;104239;-78
2023/06/23 03:51:32;;;;;;;20.23;9.00;;;;;;;23.55;59.94;100582.40;124120;1099;104408;-79
2023/06/23 03:54:05;;;;;;;19.30;8.68;;;;;;;23.57;59.88;100586.80;123967;1099;104268;-79
2023/06/23 03:56:38;;;;;;;19.05;8.95;;;;;;;23.58;59.91;100585.90;124030;1099;104367;-78
2023/06/23 03:59:12;;;;;;;20.92;8.63;;;;;;;23.61;59.83;100591.20;124054;1099;104191;-79
2023/06/23 04:01:46;;;;;;;17.83;8.97;;;;;;;23.66;59.84;100586.64;124108;1099;104219;-79
2023/06/23 04:04:18;;;;;;;16.42;7.80;;;;;;;23.74;59.77;100591.00;124481;1099;104251;-80
2023/06/23 04:06:52;;;;;;;16.43;8.80;;;;;;;23.79;59.83;100587.31;124182;1099;104318;-78
2023/06/23 04:09:24;;;;;;;19.53;9.17;;;;;;;23.85;59.79;100589.05;124209;1098;104323;-83
2023/06/23 04:11:59;;;;;;;18.75;8.60;;;;;;;23.91;59.69;100590.74;123838;1099;104233;-79
2023/06/23 04:14:33;;;;;;;19.70;8.25;;;;;;;23.95;59.75;100585.30;124200;1099;104449;-83
2023/06/23 04:17:07;;;;;;;18.37;8.40;;;;;;;23.99;59.36;100589.67;124322;1098;104281;-82
2023/06/23 04:19:40;;;;;;;18.37;8.47;;;;;;;24.05;59.49;100594.92;124208;1098;104350;-82
2023/06/23 04:22:15;;;;;;;17.00;8.28;;;;;;;24.10;59.70;100593.95;124187;1099;104312;-82
2023/06/23 04:24:48;;;;;;;18.10;8.50;;;;;;;24.14;59.55;100590.32;124281;1099;104217;-87
2023/06/23 04:27:22;;;;;;;20.17;8.63;;;;;;;24.17;59.55;100587.58;124434;1099;104267;-83
2023/06/23 04:29:56;;;;;;;23.47;8.43;;;;;;;24.24;59.18;100594.57;124125;1099;104242;-86
2023/06/23 04:32:28;;;;;;;17.20;8.30;;;;;;;24.27;59.31;100591.83;124584;1099;104310;-86
2023/06/23 04:34:59;;;;;;;14.47;7.43;;;;;;;24.33;59.19;100604.25;124724;1099;104354;-88
2023/06/23 04:37:38;;;;;;;19.30;7.95;;;;;;;24.38;59.02;100594.30;124398;1099;104171;-86
2023/06/23 04:40:15;;;;;;;19.00;7.90;;;;;;;24.45;58.93;100589.69;124801;1099;104287;-84
2023/06/23 04:42:54;;;;;;;18.50;8.77;;;;;;;24.50;59.12;100601.23;124664;1098;104165;-85
2023/06/23 04:45:28;;;;;;;16.77;8.33;;;;;;;24.55;59.03;100599.33;124476;1099;104262;-83
2023/06/23 04:48:03;;;;;;;22.50;8.73;;;;;;;24.63;58.79;100594.71;124613;1099;104223;-81
2023/06/23 04:50:36;;;;;;;18.77;8.27;;;;;;;24.66;58.95;100596.45;124552;1099;104261;-82
2023/06/23 04:53:13;;;;;;;15.03;7.57;;;;;;;24.76;59.06;100604.28;124870;1099;104255;-84
2023/06/23 04:55:48;;;;;;;15.90;7.15;;;;;;;24.82;58.93;100597.88;125123;1099;104207;-82
2023/06/23 04:58:22;;;;;;;13.87;7.50;;;;;;;24.89;58.44;100601.34;124702;1099;104383;-83
2023/06/23 05:00:55;;;;;;;13.20;7.43;;;;;;;24.95;58.29;100603.89;124856;1099;104057;-83
2023/06/23 05:03:28;;;;;;;12.73;7.90;;;;;;;25.02;58.29;100604.62;124514;1099;104195;-82
2023/06/23 05:06:02;;;;;;;12.93;7.10;;;;;;;25.08;58.15;100613.41;124881;1099;102175;-85
2023/06/23 05:08:34;;;;;;;14.87;7.37;;;;;;;25.14;58.48;100609.72;124877;1099;104265;-80
2023/06/23 05:11:07;;;;;;;12.37;7.53;;;;;;;25.20;57.84;100611.39;124970;1099;104203;-82
2023/06/23 05:13:41;;;;;;;14.77;7.13;;;;;;;25.23;57.62;100614.00;124386;1099;104245;-78
2023/06/23 05:16:15;;;;;;;15.17;7.00;;;;;;;25.28;58.07;100617.45;124393;1099;104232;-78
2023/06/23 05:18:51;;;;;;;14.23;7.00;;;;;;;25.34;57.90;100613.75;124136;1099;104225;-81
2023/06/23 05:21:25;;;;;;;13.73;7.17;;;;;;;25.39;57.91;100615.42;124309;1099;104172;-81
2023/06/23 05:24:00;;;;;;;12.00;6.97;;;;;;;25.45;57.35;100609.91;124942;1099;105511;-82
2023/06/23 05:26:38;;;;;;;16.53;6.90;;;;;;;25.51;57.89;100613.36;125173;1098;104245;-80
2023/06/23 05:29:12;;;;;;;19.20;7.80;;;;;;;25.58;57.71;100610.48;124966;1099;104335;-80
2023/06/23 05:31:45;;;;;;;12.95;7.00;;;;;;;25.62;57.61;100608.62;125214;1099;104240;-78
2023/06/23 05:34:20;;;;;;;13.40;7.15;;;;;;;25.65;57.30;100611.23;124887;1099;104191;-79
2023/06/23 05:37:12;;;;;;;14.10;7.13;;;;;;;25.70;57.10;100603.93;124507;1099;104166;-81
2023/06/23 05:39:45;;;;;;;15.40;7.00;;;;;;;25.75;56.93;100610.06;124314;1099;103333;-79
2023/06/23 05:42:20;;;;;;;13.27;7.57;;;;;;;25.80;56.74;100605.47;124934;1099;104239;-80
2023/06/23 05:44:51;;;;;;;14.20;7.05;;;;;;;25.88;57.25;100612.44;124679;1099;104248;-79
2023/06/23 05:47:27;;;;;;;14.60;6.87;;;;;;;25.94;56.65;100612.27;124706;1099;104198;-79
2023/06/23 05:50:02;;;;;;;13.20;7.30;;;;;;;25.99;56.87;100600.52;124722;1098;104740;-78
2023/06/23 05:52:38;;;;;;;16.10;7.50;;;;;;;26.06;57.03;100601.23;125163;1099;104081;-79
2023/06/23 05:55:12;;;;;;;12.45;7.20;;;;;;;26.13;56.22;100604.62;124432;1099;104323;-79
2023/06/23 05:57:46;;;;;;;13.10;7.00;;;;;;;26.21;56.65;100604.42;124599;1099;104223;-82
2023/06/23 06:00:20;;;;;;;;;;;;;;;26.27;56.38;100599.78;125289;1099;102091;-84
2023/06/23 06:02:56;;;;;;;13.80;7.17;;;;;;;26.34;56.42;100604.04;125057;1099;104220;-82
2023/06/23 06:05:32;;;;;;;15.53;7.23;;;;;;;26.40;56.07;100605.69;124843;1100;103375;-82
2023/06/23 06:08:10;;;;;;;15.63;7.20;;;;;;;26.47;56.38;100595.63;125080;1099;112044;-78
2023/06/23 06:10:42;;;;;;;11.43;6.53;;;;;;;26.55;56.33;100597.17;125811;1098;102895;-76
2023/06/23 06:13:15;;;;;;;15.72;7.12;;;;;;;26.64;56.19;100608.59;124886;1099;104236;-76
2023/06/23 06:15:50;;;;;;;12.88;6.87;;;;;;;26.69;55.60;100601.28;125369;1099;104246;-78
2023/06/23 06:18:26;;;;;;;13.37;6.93;;;;;;;26.76;55.44;100605.58;125825;1099;104245;-77
2023/06/23 06:21:01;;;;;;;14.03;7.67;;;;;;;26.83;55.28;100599.09;125033;1099;104271;-78
2023/06/23 06:23:35;;;;;;;13.87;7.23;;;;;;;26.92;54.88;100605.98;124952;1099;104158;-77
2023/06/23 06:26:12;;;;;;;15.10;6.90;;;;;;;26.99;54.79;100606.66;124538;1102;103913;-81
2023/06/23 06:28:58;;;;;;;13.67;6.80;;;;;;;27.07;54.46;100610.90;125252;1099;108597;-80
2023/06/23 06:31:36;;;;;;;13.50;7.27;;;;;;;27.15;54.15;100610.66;124755;1099;104201;-78
2023/06/23 06:34:15;;;;;;;14.87;7.00;;;;;;;27.24;54.68;100604.98;126057;1099;102843;-82
2023/06/23 06:36:50;;;;;;;16.30;7.47;;;;;;;27.31;53.95;100612.88;124537;1099;103432;-77
2023/06/23 06:39:26;;;;;;;13.07;6.67;;;;;;;27.37;53.55;100605.50;125237;1099;104304;-80
2023/06/23 06:42:02;;;;;;;13.33;6.90;;;;;;;27.44;53.21;100604.38;125068;1099;102275;-82
2023/06/23 06:44:34;;;;;;;12.70;7.07;;;;;;;27.52;53.43;100606.83;124964;1099;103807;-76
2023/06/23 06:47:09;;;;;;;11.97;6.53;;;;;;;27.61;53.42;100603.83;124917;1099;104210;-77
2023/06/23 06:49:44;;;;;;;15.00;7.30;;;;;;;27.68;52.70;100607.19;125083;1099;104223;-78
2023/06/23 06:52:18;;;;;;;10.50;6.97;;;;;;;27.78;52.64;100602.35;124486;1102;104693;-82
2023/06/23 06:54:54;;;;;;;11.00;7.00;;;;;;;27.88;52.60;100592.16;124977;1099;102934;-79
2023/06/23 06:57:29;;;;;;;16.90;7.25;;;;;;;28.00;51.82;100589.03;124787;1102;102846;-81
2023/06/23 07:00:41;;;;;;;15.13;6.60;;;;;;;28.13;52.02;100584.97;125748;1099;104431;-82
2023/06/23 07:03:18;;;;;;;12.00;6.73;;;;;;;28.28;51.96;100585.34;125322;1099;104334;-81
2023/06/23 07:06:00;;;;;;;15.47;7.57;;;;;;;28.42;51.89;100580.34;125293;1099;102253;-83
2023/06/23 07:08:39;;;;;;;14.20;6.73;;;;;;;28.59;51.33;100582.41;124846;1099;104169;-82
2023/06/23 07:11:24;;;;;;;15.20;6.73;;;;;;;28.75;50.93;100585.42;125275;1099;104252;-81
2023/06/23 07:14:09;;;;;;;12.43;6.70;;;;;;;28.93;50.23;100585.64;125731;1099;102031;-83
2023/06/23 07:16:45;;;;;;;12.90;6.60;;;;;;;29.09;49.85;100572.40;125117;1098;104239;-79
2023/06/23 07:19:18;;;;;;;11.00;6.73;;;;;;;29.26;49.55;100583.43;125121;1097;104165;-79
2023/06/23 07:21:52;;;;;;;10.70;6.47;;;;;;;29.39;47.99;100573.89;124838;1099;103200;-80
2023/06/23 07:24:36;;;;;;;12.70;6.77;;;;;;;29.54;47.13;100572.34;124688;1099;104236;-84
2023/06/23 07:27:15;;;;;;;10.67;5.53;;;;;;;29.69;46.42;100575.36;125151;1099;104175;-82
2023/06/23 07:29:49;;;;;;;12.03;6.10;;;;;;;29.86;46.27;100570.13;124984;1099;104293;-78
2023/06/23 07:32:29;;;;;;;8.57;5.73;;;;;;;30.04;45.93;100573.84;124847;1099;104262;-77
2023/06/23 07:35:00;;;;;;;9.53;5.60;;;;;;;30.22;45.06;100564.03;124660;1099;104226;-77
2023/06/23 07:37:34;;;;;;;11.80;5.67;;;;;;;30.40;44.84;100572.28;124847;1099;103296;-78
2023/06/23 07:40:08;;;;;;;14.27;6.20;;;;;;;30.54;43.81;100568.94;125453;1099;103464;-80
2023/06/23 07:42:56;;;;;;;;;;;;;;;;;;;;;
2023/06/23 07:46:08;;;;;;;9.60;5.47;;;;;;;30.78;42.40;100570.50;125911;1099;104427;-85
2023/06/23 07:48:50;;;;;;;13.43;6.37;;;;;;;31.03;42.96;100566.65;124816;1098;103491;-78
2023/06/23 07:51:22;;;;;;;9.18;6.10;;;;;;;31.23;42.05;100568.38;124704;1099;104133;-80
2023/06/23 07:53:55;;;;;;;9.27;5.53;;;;;;;31.42;41.95;100567.47;125103;1099;104296;-81
2023/06/23 07:56:27;;;;;;;8.53;5.47;;;;;;;31.61;41.44;100568.30;125181;1098;104268;-83
2023/06/23 07:58:58;;;;;;;13.03;5.90;;;;;;;31.73;40.86;100561.38;124604;1099;103287;-76
2023/06/23 08:01:35;;;;;;;11.37;5.53;;;;;;;31.88;40.05;100562.40;124762;1098;104332;-79
2023/06/23 08:04:06;;;;;;;10.20;5.97;;;;;;;31.95;39.05;100558.42;124974;1099;104185;-78
2023/06/23 08:06:38;;;;;;;11.73;6.13;;;;;;;32.03;38.83;100550.73;124213;1099;104335;-77
2023/06/23 08:09:10;;;;;;;9.60;6.10;;;;;;;32.09;39.15;100541.44;124568;1099;104271;-77
2023/06/23 08:11:41;;;;;;;10.37;5.70;;;;;;;32.31;39.00;100551.14;124519;1099;104304;-79
2023/06/23 08:14:13;;;;;;;12.50;6.30;;;;;;;32.40;38.36;100554.22;124692;1099;104345;-81
2023/06/23 08:16:45;;;;;;;7.97;5.63;;;;;;;32.52;38.18;100549.06;124396;1099;104239;-78
2023/06/23 08:19:21;;;;;;;12.57;5.80;;;;;;;32.64;38.20;100545.70;124371;1099;104275;-78
2023/06/23 08:21:54;;;;;;;11.97;6.00;;;;;;;32.77;37.50;100537.73;124888;1099;104341;-78
2023/06/23 08:24:25;;;;;;;9.68;5.50;;;;;;;32.93;37.97;100544.05;125070;1099;104265;-83
2023/06/23 08:27:00;;;;;;;8.17;5.60;;;;;;;32.96;36.88;100538.45;124870;1099;104159;-80
2023/06/23 08:33:02;;;;;;;9.00;5.70;;;;;;;33.03;36.87;100529.94;124972;1098;104610;-80
2023/06/23 08:35:35;;;;;;;10.55;5.97;;;;;;;33.06;36.77;100535.20;125366;1099;102775;-81
2023/06/23 08:38:12;;;;;;;11.55;5.60;;;;;;;33.06;36.43;100533.34;125585;1099;104166;-81
2023/06/23 08:40:47;;;;;;;11.20;5.77;;;;;;;33.21;36.31;100526.19;124601;1099;104265;-86
2023/06/23 08:43:25;;;;;;;8.40;5.07;;;;;;;33.41;35.62;100527.73;125326;1099;104309;-82
2023/06/23 08:46:02;;;;;;;10.40;5.43;;;;;;;33.58;35.61;100531.27;124246;1102;104261;-85
2023/06/23 08:48:38;;;;;;;11.47;5.67;;;;;;;33.57;34.34;100527.67;125235;1099;104201;-81
2023/06/23 08:51:19;;;;;;;8.50;5.40;;;;;;;33.56;34.21;100520.47;124327;1099;104220;-78
2023/06/23 08:53:52;;;;;;;11.40;5.67;;;;;;;33.68;33.73;100522.45;124311;1099;104363;-81
2023/06/23 08:56:26;;;;;;;8.53;5.27;;;;;;;33.81;33.51;100519.88;124255;1099;103605;-77
2023/06/23 08:58:58;;;;;;;9.40;5.65;;;;;;;33.82;33.62;100518.06;124124;1099;104190;-77
2023/06/23 09:01:31;;;;;;;11.20;5.53;;;;;;;33.81;33.35;100513.58;124290;1099;104258;-77
2023/06/23 09:04:03;;;;;;;8.78;5.58;;;;;;;33.86;33.20;100519.59;124424;1099;104175;-78
2023/06/23 09:06:35;;;;;;;11.20;5.63;;;;;;;33.88;32.68;100517.69;124482;1099;104237;-78
2023/06/23 09:09:06;;;;;;;9.57;5.57;;;;;;;33.94;32.54;100514.58;124361;1099;104315;-77
2023/06/23 09:11:38;;;;;;;7.30;5.10;;;;;;;33.96;31.54;100518.08;124417;1099;104245;-79
2023/06/23 09:14:13;;;;;;;10.65;5.67;;;;;;;33.99;31.52;100517.88;124499;1099;101896;-83
2023/06/23 09:16:45;;;;;;;9.30;5.40;;;;;;;34.03;31.63;100502.22;124520;1099;104229;-79
2023/06/23 09:19:17;;;;;;;12.23;5.22;;;;;;;34.09;31.10;100501.84;124375;1099;104172;-82
2023/06/23 09:21:50;;;;;;;11.50;5.27;;;;;;;34.21;31.32;100500.20;124269;1099;104101;-80
2023/06/23 09:24:22;;;;;;;10.50;5.47;;;;;;;34.25;31.28;100500.91;124237;1099;104245;-80
2023/06/23 09:26:55;;;;;;;;;;;;;;;34.25;30.61;100495.45;124508;1099;104376;-79
2023/06/23 09:29:31;;;;;;;9.63;5.60;;;;;;;34.33;30.69;100496.73;124367;1099;104278;-79
2023/06/23 09:32:10;;;;;;;7.53;5.40;;;;;;;34.38;30.69;100500.02;126085;1099;102910;-81
2023/06/23 09:34:57;;;;;;;16.13;5.80;;;;;;;34.46;30.54;100479.60;125502;1102;104251;-80
2023/06/23 09:38:02;;;;;;;;;;;;;;;;;;;;;
2023/06/23 09:40:36;;;;;;;10.63;5.57;;;;;;;34.37;30.16;100484.64;124882;1099;103270;-78
2023/06/23 09:43:11;;;;;;;11.37;5.93;;;;;;;34.34;30.36;100482.13;124802;1099;104239;-78
2023/06/23 09:45:45;;;;;;;10.35;5.40;;;;;;;34.36;30.17;100488.36;124840;1099;104187;-82
2023/06/23 09:48:22;;;;;;;10.10;5.07;;;;;;;34.37;29.31;100479.20;124658;1099;104163;-78
2023/06/23 09:51:04;;;;;;;10.27;5.80;;;;;;;34.49;29.59;100477.54;124810;1099;102623;-80
2023/06/23 09:53:37;;;;;;;10.40;5.53;;;;;;;34.54;29.26;100474.52;124742;1099;103606;-84
2023/06/23 09:56:16;;;;;;;9.23;5.10;;;;;;;34.51;29.00;100469.27;125084;1099;104236;-83
2023/06/23 09:58:49;;;;;;;8.63;5.43;;;;;;;34.60;28.97;100471.39;124891;1099;104406;-83
2023/06/23 10:01:20;;;;;;;;;;;;;;;34.55;29.35;100465.38;125799;1099;104163;-78
2023/06/23 10:03:56;;;;;;;9.77;5.50;;;;;;;34.47;28.91;100462.27;125138;1098;104221;-82
2023/06/23 10:06:32;;;;;;;8.93;5.17;;;;;;;34.38;29.29;100463.75;125135;1099;102377;-83
2023/06/23 10:09:10;;;;;;;10.37;5.40;;;;;;;34.46;29.13;100455.09;125207;1099;104338;-79
2023/06/23 10:11:46;;;;;;;11.10;5.23;;;;;;;34.47;29.09;100451.36;124812;1099;104205;-77
2023/06/23 10:14:21;;;;;;;8.85;5.15;;;;;;;34.50;28.10;100451.16;124877;1099;104255;-83
2023/06/23 10:16:57;;;;;;;9.00;5.17;;;;;;;34.61;28.19;100456.80;124795;1099;104166;-79
2023/06/23 10:19:29;;;;;;;9.87;5.43;;;;;;;34.68;28.15;100457.27;124605;1099;104240;-81
2023/06/23 10:22:06;;;;;;;8.37;5.03;;;;;;;34.65;27.80;100450.16;124935;1099;104251;-78
2023/06/23 10:24:39;;;;;;;6.72;4.83;;;;;;;34.61;27.58;100445.91;124942;1099;102623;-75
2023/06/23 10:27:15;;;;;;;9.07;5.07;;;;;;;34.56;27.78;100446.21;124989;1099;104297;-78
2023/06/23 10:29:52;;;;;;;7.50;5.00;;;;;;;34.48;27.48;100436.78;124889;1099;104245;-82
2023/06/23 10:32:27;;;;;;;9.17;5.13;;;;;;;34.51;27.34;100442.89;124773;1099;104112;-78
2023/06/23 10:35:00;;;;;;;9.03;5.43;;;;;;;34.46;27.64;100446.91;125132;1099;102408;-79
2023/06/23 10:37:33;;;;;;;9.63;5.50;;;;;;;34.38;27.42;100436.52;125024;1099;104335;-80
2023/06/23 10:40:10;;;;;;;8.90;4.90;;;;;;;34.35;27.75;100426.69;125048;1099;104163;-80
2023/06/23 10:42:44;;;;;;;6.95;5.20;;;;;;;34.30;27.24;100428.84;125118;1099;103307;-83
2023/06/23 10:45:20;;;;;;;10.35;5.15;;;;;;;34.43;27.05;100437.08;124900;1099;104268;-79
2023/06/23 10:47:57;;;;;;;9.80;5.40;;;;;;;34.48;27.59;100434.06;124878;1099;104216;-80
2023/06/23 10:50:32;;;;;;;9.23;5.53;;;;;;;34.50;27.59;100432.99;124836;1099;104156;-78
2023/06/23 10:53:23;;;;;;;9.57;5.10;;;;;;;34.43;27.19;100436.22;125011;1099;104233;-81
2023/06/23 10:56:03;;;;;;;7.03;5.10;;;;;;;34.47;27.07;100435.02;124904;1099;103285;-82
2023/06/23 10:58:49;;;;;;;9.67;5.20;;;;;;;34.48;27.07;100426.75;125354;1098;104236;-82
2023/06/23 11:01:26;;;;;;;10.73;5.23;;;;;;;34.52;27.05;100424.72;124734;1099;104268;-84
2023/06/23 11:04:04;;;;;;;7.93;4.90;;;;;;;34.55;27.15;100421.80;124749;1098;104239;-78
2023/06/23 11:06:38;;;;;;;9.97;5.10;;;;;;;34.56;26.68;100428.97;124898;1099;104092;-76
2023/06/23 11:09:38;;;;;;;6.77;4.97;;;;;;;34.59;26.50;100428.77;124927;1099;104246;-84
2023/06/23 11:12:30;;;;;;;11.17;5.43;;;;;;;34.62;26.48;100420.39;125443;1099;104140;-77
2023/06/23 11:15:12;;;;;;;7.67;4.90;;;;;;;34.59;26.49;100423.32;124699;1099;104290;-81
2023/06/23 11:17:45;;;;;;;8.50;4.90;;;;;;;34.51;26.40;100422.96;124908;1099;104201;-83
2023/06/23 11:20:30;;;;;;;8.47;4.80;;;;;;;34.46;26.59;100417.81;124727;1099;104191;-80
2023/06/23 11:23:05;;;;;;;7.73;4.53;;;;;;;34.39;26.49;100417.35;124709;1099;104239;-77
2023/06/23 11:25:42;;;;;;;11.33;5.30;;;;;;;34.39;26.27;100427.35;125043;1099;102398;-81
2023/06/23 11:28:25;;;;;;;7.73;4.90;;;;;;;34.37;26.19;100418.42;125401;1099;103330;-78
2023/06/23 11:31:11;;;;;;;7.47;4.87;;;;;;;34.39;25.85;100406.46;125197;1099;104162;-78
2023/06/23 11:33:45;;;;;;;9.97;5.00;;;;;;;34.41;25.51;100414.53;125185;1099;104515;-83
2023/06/23 11:36:21;;;;;;;7.83;5.23;;;;;;;34.43;25.84;100408.98;116312;1098;10001752;-82
2023/06/23 11:38:55;;;;;;;9.20;5.30;;;;;;;34.38;25.36;100409.28;124580;1099;104142;-78
2023/06/23 11:41:32;;;;;;;10.10;4.70;;;;;;;34.47;25.78;100410.51;124943;1099;101963;-78
2023/06/23 11:44:07;;;;;;;8.70;4.97;;;;;;;34.52;25.64;100411.10;124630;1099;104239;-85
2023/06/23 11:46:42;;;;;;;8.07;5.23;;;;;;;34.49;25.47;100409.44;124990;1099;104204;-81
2023/06/23 11:49:17;;;;;;;10.20;5.03;;;;;;;34.41;25.55;100400.02;124766;1099;104034;-82